createdAt,value
2023-05-10T00:02:25.269Z,14.72
2023-05-10T00:05:00.494Z,14.66
2023-05-10T00:08:05.623Z,14.64
2023-05-10T00:10:34.912Z,14.62
2023-05-10T00:13:23.621Z,14.61
2023-05-10T00:16:19.599Z,14.59
2023-05-10T00:19:06.501Z,14.59
2023-05-10T00:22:01.060Z,14.59
2023-05-10T00:24:50.592Z,14.61
2023-05-10T00:27:22.574Z,14.63
2023-05-10T00:30:11.752Z,14.65
2023-05-10T00:32:52.000Z,14.67
2023-05-10T00:35:53.043Z,14.70
2023-05-10T00:38:43.507Z,14.73
2023-05-10T00:41:42.294Z,14.75
2023-05-10T00:44:51.267Z,14.78
2023-05-10T00:47:20.782Z,14.80
2023-05-10T00:49:57.829Z,14.82
2023-05-10T00:53:00.585Z,14.84
2023-05-10T00:55:43.787Z,14.85
2023-05-10T00:58:53.285Z,14.85
2023-05-10T01:02:22.056Z,14.87
2023-05-10T01:05:22.205Z,14.88
2023-05-10T01:07:55.222Z,14.87
2023-05-10T01:10:33.791Z,14.90
2023-05-10T01:14:01.183Z,14.92
2023-05-10T01:17:02.642Z,14.93
2023-05-10T01:19:37.655Z,14.95
2023-05-10T01:22:50.939Z,14.96
2023-05-10T01:26:44.397Z,14.97
2023-05-10T01:30:22.954Z,14.98
2023-05-10T01:33:11.514Z,14.98
2023-05-10T01:36:56.391Z,14.99
2023-05-10T01:39:52.919Z,15.01
2023-05-10T01:42:39.068Z,15.04
2023-05-10T01:45:50.561Z,15.04
2023-05-10T01:48:21.402Z,15.07
2023-05-10T01:51:01.688Z,15.09
2023-05-10T01:53:45.212Z,15.12
2023-05-10T01:56:17.742Z,15.17
2023-05-10T01:58:58.257Z,15.20
2023-05-10T02:01:35.953Z,15.24
2023-05-10T02:04:05.423Z,15.27
2023-05-10T02:06:45.028Z,15.30
2023-05-10T02:09:29.629Z,15.35
2023-05-10T02:12:13.940Z,15.41
2023-05-10T02:14:44.326Z,15.45
2023-05-10T02:17:26.353Z,15.49
2023-05-10T02:20:09.760Z,15.52
2023-05-10T02:22:40.209Z,15.54
2023-05-10T02:25:15.470Z,15.57
2023-05-10T02:28:06.170Z,15.60
2023-05-10T02:30:50.486Z,15.59
2023-05-10T02:33:24.106Z,15.59
2023-05-10T02:36:04.281Z,15.60
2023-05-10T02:39:17.523Z,15.61
2023-05-10T02:42:03.967Z,15.62
2023-05-10T02:45:05.799Z,15.61
2023-05-10T02:47:57.884Z,15.63
2023-05-10T02:51:00.804Z,15.64
2023-05-10T02:53:46.833Z,15.61
2023-05-10T02:56:43.648Z,15.57
2023-05-10T02:59:52.164Z,15.56
2023-05-10T03:02:47.725Z,15.52
2023-05-10T03:05:35.859Z,15.49
2023-05-10T03:09:06.383Z,15.42
2023-05-10T03:12:39.017Z,15.33
2023-05-10T03:16:14.682Z,15.20
2023-05-10T03:19:32.736Z,15.07
2023-05-10T03:23:01.805Z,14.97
2023-05-10T03:26:31.053Z,14.87
2023-05-10T03:29:35.192Z,14.76
2023-05-10T03:32:07.374Z,14.66
2023-05-10T03:35:22.089Z,14.57
2023-05-10T03:38:52.527Z,14.45
2023-05-10T03:41:55.002Z,14.32
2023-05-10T03:44:55.102Z,14.22
2023-05-10T03:48:13.711Z,14.10
2023-05-10T03:51:42.133Z,13.98
2023-05-10T03:54:36.344Z,13.85
2023-05-10T03:57:37.931Z,13.75
2023-05-10T04:00:53.120Z,13.65
2023-05-10T04:04:06.648Z,13.54
2023-05-10T04:07:01.713Z,13.41
2023-05-10T04:10:03.721Z,13.31
2023-05-10T04:12:42.342Z,13.21
2023-05-10T04:15:46.018Z,13.13
2023-05-10T04:18:55.557Z,13.03
2023-05-10T04:22:08.684Z,12.95
2023-05-10T04:25:27.514Z,12.86
2023-05-10T04:28:19.771Z,12.79
2023-05-10T04:31:42.834Z,12.72
2023-05-10T04:34:51.834Z,12.65
2023-05-10T04:38:22.013Z,12.59
2023-05-10T04:41:51.102Z,12.50
2023-05-10T04:45:08.782Z,12.41
2023-05-10T04:47:58.387Z,12.38
2023-05-10T04:51:26.687Z,12.32
2023-05-10T04:54:39.362Z,12.28
2023-05-10T04:58:01.403Z,12.24
2023-05-10T05:01:30.453Z,12.22
2023-05-10T05:04:47.718Z,12.20
2023-05-10T05:08:04.682Z,12.20
2023-05-10T05:11:04.070Z,12.18
2023-05-10T05:14:02.798Z,12.17
2023-05-10T05:17:32.571Z,12.14
2023-05-10T05:21:01.625Z,12.10
2023-05-10T05:24:01.155Z,12.05
2023-05-10T05:27:30.119Z,12.02
2023-05-10T05:30:48.893Z,11.97
2023-05-10T05:34:06.482Z,11.94
2023-05-10T05:36:58.964Z,11.89
2023-05-10T05:39:59.335Z,11.85
2023-05-10T05:43:28.676Z,11.81
2023-05-10T05:46:41.213Z,11.75
2023-05-10T05:50:09.172Z,11.69
2023-05-10T05:52:59.264Z,11.61
2023-05-10T05:56:37.855Z,11.56
2023-05-10T05:59:10.004Z,11.48
2023-05-10T06:02:22.790Z,11.44
2023-05-10T06:05:16.314Z,11.39
2023-05-10T06:08:38.244Z,11.35
2023-05-10T06:11:28.303Z,11.32
2023-05-10T06:14:50.831Z,11.29
2023-05-10T06:18:18.904Z,11.23
2023-05-10T06:21:48.414Z,11.16
2023-05-10T06:25:18.092Z,11.09
2023-05-10T06:28:47.246Z,11.01
2023-05-10T06:32:16.850Z,10.92
2023-05-10T06:35:46.078Z,10.83
2023-05-10T06:38:55.564Z,10.77
2023-05-10T06:42:25.601Z,10.72
2023-05-10T06:45:18.095Z,10.66
2023-05-10T06:48:00.038Z,10.61
2023-05-10T06:51:17.047Z,10.56
2023-05-10T06:54:33.115Z,10.51
2023-05-10T06:57:31.085Z,10.46
2023-05-10T07:00:44.811Z,10.41
2023-05-10T07:04:00.030Z,10.37
2023-05-10T07:07:09.496Z,10.35
2023-05-10T07:10:28.278Z,10.34
2023-05-10T07:13:46.006Z,10.30
2023-05-10T07:17:03.829Z,10.28
2023-05-10T07:20:26.850Z,10.25
2023-05-10T07:23:31.636Z,10.23
2023-05-10T07:26:36.435Z,10.24
2023-05-10T07:30:05.835Z,10.23
2023-05-10T07:33:23.292Z,10.24
2023-05-10T07:36:52.646Z,10.23
2023-05-10T07:40:07.037Z,10.21
2023-05-10T07:43:29.305Z,10.17
2023-05-10T07:46:43.382Z,10.15
2023-05-10T07:49:52.761Z,10.14
2023-05-10T07:53:01.419Z,10.14
2023-05-10T07:56:26.895Z,10.17
2023-05-10T07:59:50.353Z,10.24
2023-05-10T08:03:12.667Z,10.31
2023-05-10T08:06:27.963Z,10.37
2023-05-10T08:09:46.223Z,10.42
2023-05-10T08:13:08.864Z,10.47
2023-05-10T08:16:38.702Z,10.51
2023-05-10T08:20:08.196Z,10.55
2023-05-10T08:23:37.512Z,10.59
2023-05-10T08:26:50.088Z,10.61
2023-05-10T08:30:07.727Z,10.64
2023-05-10T08:33:29.594Z,10.66
2023-05-10T08:36:59.138Z,10.69
2023-05-10T08:40:22.412Z,10.69
2023-05-10T08:43:44.644Z,10.69
2023-05-10T08:46:53.989Z,10.71
2023-05-10T08:49:57.230Z,10.73
2023-05-10T08:53:15.545Z,10.75
2023-05-10T08:56:22.151Z,10.77
2023-05-10T08:59:33.258Z,10.79
2023-05-10T09:02:55.531Z,10.80
2023-05-10T09:06:23.270Z,10.81
2023-05-10T09:09:22.164Z,10.83
2023-05-10T09:12:13.806Z,10.83
2023-05-10T09:15:25.110Z,10.83
2023-05-10T09:18:41.082Z,10.82
2023-05-10T09:21:40.714Z,10.81
2023-05-10T09:24:46.401Z,10.79
2023-05-10T09:28:08.334Z,10.75
2023-05-10T09:31:31.150Z,10.70
2023-05-10T09:35:00.048Z,10.66
2023-05-10T09:38:14.387Z,10.60
2023-05-10T09:41:29.296Z,10.54
2023-05-10T09:45:01.234Z,10.49
2023-05-10T09:48:26.207Z,10.43
2023-05-10T09:52:02.778Z,10.35
2023-05-10T09:55:35.024Z,10.28
2023-05-10T09:58:47.377Z,10.23
2023-05-10T10:02:16.506Z,10.17
2023-05-10T10:05:35.779Z,10.12
2023-05-10T10:08:59.201Z,10.06
2023-05-10T10:12:28.682Z,10.03
2023-05-10T10:15:57.365Z,9.98
2023-05-10T10:19:27.848Z,9.94
2023-05-10T10:22:54.789Z,9.89
2023-05-10T10:26:06.328Z,9.85
2023-05-10T10:29:39.725Z,9.82
2023-05-10T10:33:20.100Z,9.76
2023-05-10T10:36:41.774Z,9.71
2023-05-10T10:39:59.830Z,9.68
2023-05-10T10:43:45.945Z,9.64
2023-05-10T10:46:53.009Z,9.58
2023-05-10T10:50:25.439Z,9.54
2023-05-10T10:53:48.180Z,9.49
2023-05-10T10:57:09.195Z,9.46
2023-05-10T11:00:29.451Z,9.45
2023-05-10T11:03:59.980Z,9.46
2023-05-10T11:07:31.927Z,9.47
2023-05-10T11:10:58.240Z,9.50
2023-05-10T11:14:13.757Z,9.52
2023-05-10T11:17:36.571Z,9.54
2023-05-10T11:21:15.647Z,9.55
2023-05-10T11:24:43.945Z,9.58
2023-05-10T11:27:59.622Z,9.60
2023-05-10T11:31:18.364Z,9.63
2023-05-10T11:34:30.407Z,9.65
2023-05-10T11:37:54.488Z,9.65
2023-05-10T11:41:16.999Z,9.64
2023-05-10T11:44:28.995Z,9.65
2023-05-10T11:47:42.881Z,9.65
2023-05-10T11:51:05.369Z,9.64
2023-05-10T11:54:17.964Z,9.62
2023-05-10T11:57:39.934Z,9.61
2023-05-10T12:01:10.278Z,9.61
2023-05-10T12:04:15.618Z,9.63
2023-05-10T12:07:33.446Z,9.63
2023-05-10T12:11:08.421Z,9.62
2023-05-10T12:14:43.754Z,9.61
2023-05-10T12:18:14.508Z,9.62
2023-05-10T12:21:35.961Z,9.63
2023-05-10T12:24:57.797Z,9.62
2023-05-10T12:28:39.050Z,9.63
2023-05-10T12:32:07.710Z,9.62
2023-05-10T12:35:05.882Z,9.59
2023-05-10T12:38:34.706Z,9.56
2023-05-10T12:41:52.874Z,9.52
2023-05-10T12:45:08.056Z,9.45
2023-05-10T12:48:10.329Z,9.39
2023-05-10T12:51:24.206Z,9.32
2023-05-10T12:54:46.737Z,9.26
2023-05-10T12:58:31.378Z,9.19
2023-05-10T13:02:00.376Z,9.13
2023-05-10T13:05:28.446Z,9.09
2023-05-10T13:08:47.662Z,9.05
2023-05-10T13:12:16.836Z,9.01
2023-05-10T13:15:45.126Z,8.98
2023-05-10T13:18:43.756Z,8.96
2023-05-10T13:21:56.137Z,8.94
2023-05-10T13:25:25.089Z,8.93
2023-05-10T13:28:34.819Z,8.91
2023-05-10T13:31:36.704Z,8.91
2023-05-10T13:34:48.198Z,8.89
2023-05-10T13:38:17.356Z,8.87
2023-05-10T13:41:38.880Z,8.85
2023-05-10T13:45:07.736Z,8.82
2023-05-10T13:48:38.767Z,8.81
2023-05-10T13:51:33.343Z,8.79
2023-05-10T13:55:02.463Z,8.79
2023-05-10T13:58:31.985Z,8.79
2023-05-10T14:02:01.126Z,8.79
2023-05-10T14:05:26.024Z,8.81
2023-05-10T14:08:55.169Z,8.85
2023-05-10T14:12:07.509Z,8.92
2023-05-10T14:15:08.424Z,8.97
2023-05-10T14:18:04.396Z,9.05
2023-05-10T14:21:33.589Z,9.12
2023-05-10T14:24:35.529Z,9.21
2023-05-10T14:28:04.599Z,9.30
2023-05-10T14:31:27.710Z,9.38
2023-05-10T14:34:57.926Z,9.46
2023-05-10T14:38:27.341Z,9.56
2023-05-10T14:41:48.201Z,9.65
2023-05-10T14:44:57.510Z,9.72
2023-05-10T14:48:06.473Z,9.79
2023-05-10T14:51:02.413Z,9.85
2023-05-10T14:54:24.355Z,9.93
2023-05-10T14:57:53.679Z,10.00
2023-05-10T15:01:04.812Z,10.06
2023-05-10T15:03:57.587Z,10.12
2023-05-10T15:07:20.509Z,10.17
2023-05-10T15:10:43.329Z,10.24
2023-05-10T15:14:03.767Z,10.28
2023-05-10T15:17:24.944Z,10.33
2023-05-10T15:20:35.162Z,10.40
2023-05-10T15:23:58.315Z,10.46
2023-05-10T15:26:42.397Z,10.51
2023-05-10T15:30:00.953Z,10.55
2023-05-10T15:33:23.668Z,10.60
2023-05-10T15:36:33.197Z,10.64
2023-05-10T15:39:25.967Z,10.65
2023-05-10T15:42:27.515Z,10.66
2023-05-10T15:45:49.579Z,10.66
2023-05-10T15:49:12.101Z,10.66
2023-05-10T15:52:34.494Z,10.67
2023-05-10T15:55:43.811Z,10.68
2023-05-10T15:59:12.975Z,10.69
2023-05-10T16:01:54.120Z,10.69
2023-05-10T16:04:42.297Z,10.69
2023-05-10T16:07:31.828Z,10.69
2023-05-10T16:10:43.962Z,10.69
2023-05-10T16:13:55.928Z,10.67
2023-05-10T16:17:05.877Z,10.66
2023-05-10T16:19:35.594Z,10.67
2023-05-10T16:22:33.804Z,10.67
2023-05-10T16:25:36.339Z,10.67
2023-05-10T16:28:28.431Z,10.68
2023-05-10T16:31:21.328Z,10.69
2023-05-10T16:34:21.906Z,10.71
2023-05-10T16:37:07.600Z,10.72
2023-05-10T16:40:00.888Z,10.73
2023-05-10T16:43:23.365Z,10.74
2023-05-10T16:46:52.126Z,10.74
2023-05-10T16:49:57.507Z,10.76
2023-05-10T16:53:15.661Z,10.78
2023-05-10T16:56:31.550Z,10.79
2023-05-10T16:59:23.326Z,10.81
2023-05-10T17:02:51.670Z,10.83
2023-05-10T17:06:04.433Z,10.87
2023-05-10T17:09:26.974Z,10.92
2023-05-10T17:12:56.255Z,10.99
2023-05-10T17:16:25.734Z,11.06
2023-05-10T17:19:36.538Z,11.12
2023-05-10T17:22:53.520Z,11.20
2023-05-10T17:26:22.928Z,11.28
2023-05-10T17:29:34.004Z,11.35
2023-05-10T17:32:55.059Z,11.41
2023-05-10T17:36:04.613Z,11.48
2023-05-10T17:39:22.961Z,11.54
2023-05-10T17:42:25.210Z,11.60
2023-05-10T17:45:54.314Z,11.66
2023-05-10T17:49:22.708Z,11.71
2023-05-10T17:52:41.759Z,11.77
2023-05-10T17:56:04.564Z,11.81
2023-05-10T17:59:26.196Z,11.88
2023-05-10T18:02:55.294Z,11.93
2023-05-10T18:05:56.790Z,12.00
2023-05-10T18:09:26.983Z,12.05
2023-05-10T18:12:55.945Z,12.12
2023-05-10T18:16:19.626Z,12.21
2023-05-10T18:19:38.006Z,12.26
2023-05-10T18:23:06.036Z,12.34
2023-05-10T18:26:35.525Z,12.39
2023-05-10T18:29:46.405Z,12.43
2023-05-10T18:32:58.354Z,12.48
2023-05-10T18:36:18.288Z,12.53
2023-05-10T18:39:47.702Z,12.60
2023-05-10T18:42:28.006Z,12.65
2023-05-10T18:45:37.401Z,12.70
2023-05-10T18:48:57.124Z,12.78
2023-05-10T18:51:56.598Z,12.87
2023-05-10T18:55:14.903Z,12.94
2023-05-10T18:57:57.297Z,12.97
2023-05-10T19:01:12.248Z,13.02
2023-05-10T19:04:41.443Z,13.07
2023-05-10T19:07:30.953Z,13.13
2023-05-10T19:10:26.847Z,13.18
2023-05-10T19:13:16.530Z,13.25
2023-05-10T19:16:20.145Z,13.33
2023-05-10T19:18:57.878Z,13.40
2023-05-10T19:21:57.347Z,13.47
2023-05-10T19:25:27.534Z,13.52
2023-05-10T19:28:37.422Z,13.57
2023-05-10T19:31:50.369Z,13.64
2023-05-10T19:35:09.801Z,13.73
2023-05-10T19:38:38.361Z,13.85
2023-05-10T19:41:19.546Z,13.96
2023-05-10T19:44:34.693Z,14.04
2023-05-10T19:47:54.591Z,14.13
2023-05-10T19:51:23.726Z,14.21
2023-05-10T19:54:52.983Z,14.26
2023-05-10T19:57:53.510Z,14.32
2023-05-10T20:01:09.580Z,14.36
2023-05-10T20:04:18.125Z,14.38
2023-05-10T20:07:05.262Z,14.38
2023-05-10T20:10:17.559Z,14.38
2023-05-10T20:13:15.775Z,14.42
2023-05-10T20:16:09.149Z,14.45
2023-05-10T20:19:09.214Z,14.50
2023-05-10T20:22:10.783Z,14.54
2023-05-10T20:25:27.828Z,14.59
2023-05-10T20:29:00.673Z,14.64
2023-05-10T20:31:46.135Z,14.69
2023-05-10T20:34:56.666Z,14.71
2023-05-10T20:38:15.351Z,14.74
2023-05-10T20:40:53.903Z,14.77
2023-05-10T20:44:03.599Z,14.79
2023-05-10T20:46:52.746Z,14.82
2023-05-10T20:49:43.580Z,14.86
2023-05-10T20:52:36.349Z,14.90
2023-05-10T20:55:14.379Z,14.94
2023-05-10T20:58:12.049Z,14.97
2023-05-10T21:01:03.562Z,15.03
2023-05-10T21:03:51.808Z,15.07
2023-05-10T21:07:10.197Z,15.07
2023-05-10T21:10:12.319Z,15.12
2023-05-10T21:13:23.456Z,15.17
2023-05-10T21:16:33.025Z,15.20
2023-05-10T21:19:16.046Z,15.25
2023-05-10T21:22:23.454Z,15.28
2023-05-10T21:25:18.966Z,15.32
2023-05-10T21:28:33.672Z,15.36
2023-05-10T21:31:19.026Z,15.42
2023-05-10T21:34:22.985Z,15.48
2023-05-10T21:37:32.181Z,15.51
2023-05-10T21:40:02.951Z,15.53
2023-05-10T21:42:35.366Z,15.58
2023-05-10T21:45:34.049Z,15.61
2023-05-10T21:48:41.840Z,15.63
2023-05-10T21:52:09.912Z,15.67
2023-05-10T21:54:41.144Z,15.70
2023-05-10T21:57:30.437Z,15.73
2023-05-10T22:00:20.228Z,15.78
2023-05-10T22:02:53.439Z,15.82
2023-05-10T22:05:22.933Z,15.86
2023-05-10T22:08:12.217Z,15.88
2023-05-10T22:10:44.425Z,15.92
2023-05-10T22:13:13.432Z,15.94
2023-05-10T22:15:42.756Z,15.96
2023-05-10T22:18:12.210Z,15.97
2023-05-10T22:20:41.255Z,15.99
2023-05-10T22:23:10.308Z,15.99
2023-05-10T22:25:59.778Z,15.99
2023-05-10T22:28:28.806Z,16.01
2023-05-10T22:30:58.492Z,16.03
2023-05-10T22:33:31.323Z,16.05
2023-05-10T22:36:00.329Z,16.09
2023-05-10T22:38:29.895Z,16.14
2023-05-10T22:41:00.011Z,16.18
2023-05-10T22:43:29.076Z,16.22
2023-05-10T22:45:58.468Z,16.29
2023-05-10T22:49:01.964Z,16.33
2023-05-10T22:51:41.433Z,16.40
2023-05-10T22:54:13.378Z,16.45
2023-05-10T22:56:42.480Z,16.52
2023-05-10T22:59:17.588Z,16.57
2023-05-10T23:01:57.167Z,16.63
2023-05-10T23:04:29.265Z,16.71
2023-05-10T23:07:00.909Z,16.79
2023-05-10T23:09:30.323Z,16.86
2023-05-10T23:12:22.762Z,16.93
2023-05-10T23:14:51.814Z,17.00
2023-05-10T23:17:24.922Z,17.07
2023-05-10T23:19:59.927Z,17.14
2023-05-10T23:22:29.256Z,17.20
2023-05-10T23:25:01.462Z,17.25
2023-05-10T23:27:56.281Z,17.29
2023-05-10T23:30:29.593Z,17.35
2023-05-10T23:33:17.994Z,17.40
2023-05-10T23:35:47.509Z,17.45
2023-05-10T23:38:16.549Z,17.50
2023-05-10T23:41:13.807Z,17.56
2023-05-10T23:44:32.961Z,17.59
2023-05-10T23:47:05.572Z,17.62
2023-05-10T23:49:34.734Z,17.65
2023-05-10T23:52:04.183Z,17.68
2023-05-10T23:54:36.779Z,17.70
2023-05-10T23:57:06.101Z,17.69
2023-05-10T23:59:37.818Z,17.69
